Time;durP1;ratioP1;P1;durP2;ratioP2;P2;SDS_P1;SDS_P2;PMS_P1;PMS_P2;Temp;Humidity;BMP_temperature;BMP_pressure;BME280_temperature;BME280_humidity;BME280_pressure;Samples;Min_cycle;Max_cycle;Signal;HPM_P1;HPM_P2
2021/10/17 00:00:21;;;;;;;3.83;1.95;;;19.90;62.70;;;;;;4976850;28;88438;-70
2021/10/17 00:02:49;;;;;;;2.45;1.90;;;19.90;62.80;;;;;;4974477;28;87860;-70
2021/10/17 00:05:18;;;;;;;2.75;1.67;;;19.90;62.80;;;;;;4958304;28;87505;-70
2021/10/17 00:07:46;;;;;;;2.40;2.17;;;19.90;62.80;;;;;;4975615;28;88443;-70
2021/10/17 00:10:16;;;;;;;3.47;2.08;;;19.90;62.80;;;;;;4973436;28;87972;-70
2021/10/17 00:12:43;;;;;;;3.95;2.13;;;19.90;62.80;;;;;;4975563;28;88890;-70
2021/10/17 00:15:14;;;;;;;2.20;1.85;;;19.90;62.80;;;;;;4957644;28;88773;-70
2021/10/17 00:17:42;;;;;;;2.72;1.92;;;19.90;62.90;;;;;;4975590;28;87801;-70
2021/10/17 00:20:12;;;;;;;2.72;1.83;;;19.90;62.80;;;;;;4975854;28;88184;-70
2021/10/17 00:22:39;;;;;;;2.70;2.13;;;19.90;62.90;;;;;;4976524;28;88323;-70
2021/10/17 00:25:08;;;;;;;2.33;1.80;;;19.90;62.90;;;;;;4976760;28;88123;-69
2021/10/17 00:27:35;;;;;;;3.88;2.05;;;19.90;62.90;;;;;;4974012;28;88594;-70
2021/10/17 00:30:05;;;;;;;2.33;1.67;;;19.90;62.90;;;;;;4959125;28;90744;-70
2021/10/17 00:32:32;;;;;;;2.88;1.98;;;19.90;63.00;;;;;;4959164;28;89244;-69
2021/10/17 00:35:01;;;;;;;3.03;2.05;;;19.90;63.00;;;;;;4975100;28;87875;-70
2021/10/17 00:37:29;;;;;;;2.58;1.90;;;19.90;63.00;;;;;;4952220;28;91457;-69
2021/10/17 00:39:56;;;;;;;3.20;2.17;;;19.90;63.00;;;;;;4948430;28;89558;-70
2021/10/17 00:42:24;;;;;;;3.03;2.05;;;19.90;63.00;;;;;;4958513;28;88555;-70
2021/10/17 00:45:18;;;;;;;2.78;2.28;;;19.90;63.00;;;;;;4958434;28;90601;-70
2021/10/17 00:47:46;;;;;;;3.03;1.80;;;19.90;63.00;;;;;;4974048;28;88743;-69
2021/10/17 00:50:13;;;;;;;2.03;1.77;;;19.90;63.00;;;;;;4959256;28;91216;-70
2021/10/17 00:52:43;;;;;;;2.95;2.17;;;19.90;63.00;;;;;;4977530;28;88104;-70
2021/10/17 00:55:12;;;;;;;2.83;2.05;;;19.90;63.10;;;;;;4959173;28;91000;-70
2021/10/17 00:57:41;;;;;;;2.55;1.67;;;19.90;63.00;;;;;;4959582;28;91097;-70
2021/10/17 01:00:09;;;;;;;2.72;2.20;;;19.90;63.10;;;;;;4976807;28;88312;-70
2021/10/17 01:02:36;;;;;;;3.08;2.10;;;19.90;63.10;;;;;;4959305;28;89015;-70
2021/10/17 01:05:04;;;;;;;2.58;1.83;;;19.90;63.20;;;;;;4973360;28;87887;-70
2021/10/17 01:07:31;;;;;;;2.53;1.67;;;19.90;63.10;;;;;;4954155;28;91525;-70
2021/10/17 01:10:01;;;;;;;2.72;1.83;;;19.90;63.00;;;;;;4977140;28;89631;-70
2021/10/17 01:12:29;;;;;;;3.60;2.08;;;19.90;63.10;;;;;;4973491;28;89247;-70
2021/10/17 01:14:56;;;;;;;2.25;1.88;;;19.90;63.10;;;;;;4957362;28;90300;-70
2021/10/17 01:17:23;;;;;;;3.25;2.28;;;19.90;63.10;;;;;;4957966;28;89951;-70
2021/10/17 01:19:53;;;;;;;2.22;2.03;;;19.90;63.10;;;;;;4975246;28;88254;-70
2021/10/17 01:22:24;;;;;;;2.33;2.00;;;19.90;63.20;;;;;;4958089;28;88588;-70
2021/10/17 01:24:54;;;;;;;2.40;1.70;;;19.90;63.80;;;;;;4958312;28;90093;-70
2021/10/17 01:27:21;;;;;;;3.78;2.15;;;19.90;63.20;;;;;;4958522;28;91632;-70
2021/10/17 01:29:49;;;;;;;2.15;1.90;;;19.90;63.20;;;;;;4942619;28;90592;-70
2021/10/17 01:32:16;;;;;;;1.98;1.67;;;19.80;63.20;;;;;;4976314;28;87828;-70
2021/10/17 01:34:43;;;;;;;3.22;2.08;;;19.80;63.20;;;;;;4941880;28;90099;-70
2021/10/17 01:37:10;;;;;;;3.25;2.15;;;19.90;63.20;;;;;;4971572;28;88525;-70
2021/10/17 01:39:37;;;;;;;2.95;2.20;;;19.90;63.30;;;;;;4975218;28;88337;-70
2021/10/17 01:42:04;;;;;;;2.45;1.77;;;19.80;63.20;;;;;;4972812;28;88926;-70
2021/10/17 01:44:39;;;;;;;2.30;2.10;;;19.80;63.20;;;;;;4959769;28;89992;-70
2021/10/17 01:47:08;;;;;;;2.75;2.20;;;19.80;63.20;;;;;;4974783;28;91035;-70
2021/10/17 01:49:36;;;;;;;2.83;2.25;;;19.80;63.20;;;;;;4964906;28;89679;-70
2021/10/17 01:52:06;;;;;;;2.55;1.88;;;19.80;63.20;;;;;;4941911;28;89105;-70
2021/10/17 01:54:37;;;;;;;;;;;19.80;63.20;;;;;;4961105;28;90380;-70
2021/10/17 01:57:05;;;;;;;2.17;2.05;;;19.80;63.20;;;;;;4962216;28;90573;-70
2021/10/17 01:59:34;;;;;;;2.60;2.40;;;19.80;63.20;;;;;;4961262;28;90412;-70
2021/10/17 02:02:12;;;;;;;1.98;1.80;;;19.80;63.30;;;;;;4978029;28;87967;-70
2021/10/17 02:04:42;;;;;;;2.10;1.90;;;19.80;63.30;;;;;;4962013;28;90520;-70
2021/10/17 02:07:09;;;;;;;2.65;2.15;;;19.80;63.30;;;;;;4960728;28;90782;-70
2021/10/17 02:09:37;;;;;;;2.10;1.80;;;19.80;63.30;;;;;;4941711;28;92326;-70
2021/10/17 02:12:06;;;;;;;2.63;2.00;;;19.80;63.30;;;;;;4941729;28;89008;-70
2021/10/17 02:14:35;;;;;;;3.42;2.05;;;19.80;63.30;;;;;;4961237;28;88645;-70
2021/10/17 02:17:05;;;;;;;2.53;2.00;;;19.80;63.90;;;;;;4960650;28;91887;-71
2021/10/17 02:19:32;;;;;;;2.50;2.30;;;19.80;63.30;;;;;;4978993;28;88196;-70
2021/10/17 02:22:02;;;;;;;2.20;2.00;;;19.80;63.30;;;;;;4960980;28;89083;-70
2021/10/17 02:24:30;;;;;;;2.72;2.00;;;19.80;63.30;;;;;;4961550;28;90449;-70
2021/10/17 02:26:58;;;;;;;2.50;2.30;;;19.80;63.40;;;;;;4959981;28;90831;-70
2021/10/17 02:29:33;;;;;;;2.28;2.00;;;19.80;63.30;;;;;;4977986;28;88300;-70
2021/10/17 02:32:19;;;;;;;3.55;2.10;;;19.80;63.30;;;;;;4979322;28;87942;-70
2021/10/17 02:34:53;;;;;;;2.22;1.98;;;19.80;63.40;;;;;;4977525;28;89523;-70
2021/10/17 02:37:21;;;;;;;2.08;1.70;;;19.80;63.40;;;;;;4960487;28;91439;-70
2021/10/17 02:39:48;;;;;;;2.35;2.15;;;19.80;63.40;;;;;;4944965;28;91039;-70
2021/10/17 02:42:15;;;;;;;2.22;2.03;;;19.80;63.40;;;;;;4960648;28;89154;-70
2021/10/17 02:44:45;;;;;;;2.22;2.03;;;19.80;63.40;;;;;;4960950;28;90193;-70
2021/10/17 02:47:13;;;;;;;2.60;2.22;;;19.70;63.30;;;;;;4960178;28;90990;-70
2021/10/17 02:49:40;;;;;;;2.10;1.90;;;19.80;63.40;;;;;;4944784;28;91361;-70
2021/10/17 02:52:07;;;;;;;2.00;1.90;;;19.80;63.50;;;;;;4976689;28;89089;-70
2021/10/17 02:54:34;;;;;;;2.60;2.08;;;19.80;63.40;;;;;;4978934;28;88062;-70
2021/10/17 02:57:02;;;;;;;2.22;2.03;;;19.80;63.50;;;;;;4944395;28;90522;-70
2021/10/17 02:59:29;;;;;;;2.47;2.00;;;19.80;63.50;;;;;;4963071;28;91493;-70
2021/10/17 03:01:57;;;;;;;2.13;1.75;;;19.80;63.50;;;;;;4960706;28;89127;-70
2021/10/17 03:04:26;;;;;;;2.22;2.03;;;19.70;63.40;;;;;;4976238;28;89654;-70
2021/10/17 03:06:56;;;;;;;3.05;2.20;;;19.80;63.40;;;;;;4962358;28;92010;-70
2021/10/17 03:09:24;;;;;;;2.10;1.90;;;19.70;63.40;;;;;;4951639;28;90747;-69
2021/10/17 03:11:51;;;;;;;2.78;2.10;;;19.80;63.50;;;;;;4940835;28;89086;-69
2021/10/17 03:14:18;;;;;;;2.20;2.00;;;19.80;63.50;;;;;;4940534;28;90206;-70
2021/10/17 03:16:46;;;;;;;2.35;2.00;;;19.70;63.50;;;;;;4940818;28;91444;-70
2021/10/17 03:19:14;;;;;;;2.10;1.90;;;19.70;63.50;;;;;;4940739;28;89843;-70
2021/10/17 03:21:41;;;;;;;2.63;2.13;;;19.80;63.60;;;;;;4940376;28;89048;-70
2021/10/17 03:24:09;;;;;;;2.30;2.10;;;19.70;63.50;;;;;;4939834;28;89933;-70
2021/10/17 03:26:36;;;;;;;2.00;1.90;;;19.70;63.60;;;;;;4939620;28;90662;-70
2021/10/17 03:29:03;;;;;;;2.15;1.95;;;19.70;63.60;;;;;;4939649;28;91315;-70
2021/10/17 03:31:33;;;;;;;2.20;2.00;;;19.70;63.50;;;;;;4959042;28;88886;-70
2021/10/17 03:34:00;;;;;;;2.28;2.08;;;19.70;63.60;;;;;;4975383;28;90564;-70
2021/10/17 03:36:27;;;;;;;2.03;1.90;;;19.70;64.20;;;;;;4963587;28;90932;-70
2021/10/17 03:38:55;;;;;;;2.10;1.95;;;19.70;63.60;;;;;;4961056;28;90960;-70
2021/10/17 03:41:25;;;;;;;2.05;1.85;;;19.70;63.60;;;;;;4976831;28;87959;-70
2021/10/17 03:43:52;;;;;;;2.20;2.00;;;19.70;63.60;;;;;;4976739;28;88433;-70
2021/10/17 03:46:22;;;;;;;2.22;2.03;;;19.70;63.70;;;;;;4958988;28;91178;-70
2021/10/17 03:48:51;;;;;;;1.80;1.70;;;19.70;63.60;;;;;;4971548;28;90908;-70
2021/10/17 03:51:21;;;;;;;2.33;2.13;;;19.70;63.70;;;;;;4958757;28;88925;-70
2021/10/17 03:53:48;;;;;;;2.40;2.08;;;19.70;63.90;;;;;;4958712;28;90154;-70
2021/10/17 03:56:15;;;;;;;2.30;1.95;;;19.70;63.70;;;;;;4974596;28;92068;-70
2021/10/17 03:58:42;;;;;;;2.25;2.05;;;19.70;63.70;;;;;;4958541;28;91569;-70
2021/10/17 04:01:09;;;;;;;2.72;2.30;;;19.70;63.80;;;;;;4962393;28;89526;-70
2021/10/17 04:03:36;;;;;;;2.45;2.25;;;19.70;63.80;;;;;;4960318;28;90335;-70
2021/10/17 04:06:07;;;;;;;2.03;1.88;;;19.70;63.80;;;;;;4945463;28;91162;-70
2021/10/17 04:08:35;;;;;;;2.30;2.10;;;19.70;63.80;;;;;;4939283;28;91004;-70
2021/10/17 04:11:02;;;;;;;2.13;1.92;;;19.70;63.90;;;;;;4938921;28;89214;-70
2021/10/17 04:13:29;;;;;;;2.30;1.80;;;19.70;63.90;;;;;;4923400;28;89876;-70
2021/10/17 04:16:00;;;;;;;2.10;1.90;;;19.70;63.90;;;;;;4938150;28;91131;-70
2021/10/17 04:18:27;;;;;;;2.72;2.20;;;19.70;63.90;;;;;;4939116;28;91188;-70
2021/10/17 04:20:54;;;;;;;2.00;1.90;;;19.70;64.00;;;;;;4938355;28;89267;-70
2021/10/17 04:23:22;;;;;;;1.80;1.70;;;19.70;63.90;;;;;;4923363;28;90780;-62
2021/10/17 04:25:49;;;;;;;2.05;1.95;;;19.70;64.00;;;;;;4957053;28;88132;-62
2021/10/17 04:28:19;;;;;;;2.30;2.10;;;19.70;64.00;;;;;;4955284;28;91673;-62
2021/10/17 04:30:46;;;;;;;2.22;2.03;;;19.70;64.00;;;;;;4956933;28;88113;-62
2021/10/17 04:33:13;;;;;;;2.13;1.92;;;19.70;64.00;;;;;;4975045;28;88409;-63
2021/10/17 04:35:41;;;;;;;2.65;1.83;;;19.70;64.00;;;;;;4948606;28;89565;-62
2021/10/17 04:38:08;;;;;;;2.15;1.95;;;19.70;64.00;;;;;;4956599;28;88510;-62
2021/10/17 04:40:36;;;;;;;2.15;2.05;;;19.70;64.00;;;;;;4938718;28;89101;-62
2021/10/17 04:43:04;;;;;;;2.15;1.95;;;19.70;64.10;;;;;;4939079;28;90324;-62
2021/10/17 04:45:31;;;;;;;2.60;2.10;;;19.70;64.10;;;;;;4979805;28;89263;-61
2021/10/17 04:47:58;;;;;;;1.85;1.75;;;19.70;64.10;;;;;;4975164;28;91878;-63
2021/10/17 04:50:25;;;;;;;2.35;2.08;;;19.70;64.10;;;;;;4958561;28;88302;-62
2021/10/17 04:52:55;;;;;;;1.92;1.83;;;19.70;64.10;;;;;;4976817;28;88307;-62
2021/10/17 04:55:24;;;;;;;2.42;1.90;;;19.70;64.10;;;;;;4976508;28;88713;-62
2021/10/17 04:57:51;;;;;;;2.00;1.75;;;19.70;64.10;;;;;;4975504;28;90990;-62
2021/10/17 05:00:20;;;;;;;2.88;2.08;;;19.70;64.10;;;;;;4958535;28;88082;-62
2021/10/17 05:02:53;;;;;;;;;;;19.70;64.10;;;;;;4960467;28;88072;-62
2021/10/17 05:05:21;;;;;;;1.83;1.73;;;19.70;64.20;;;;;;4958352;28;91281;-62
2021/10/17 05:07:47;;;;;;;2.60;1.92;;;19.70;64.20;;;;;;4958374;28;91123;-62
2021/10/17 05:10:15;;;;;;;2.83;1.85;;;19.70;64.20;;;;;;4957738;28;88650;-62
2021/10/17 05:12:41;;;;;;;2.17;1.98;;;19.70;64.20;;;;;;4958574;28;90345;-62
2021/10/17 05:15:09;;;;;;;1.75;1.65;;;19.70;64.30;;;;;;4958379;28;90890;-62
2021/10/17 05:17:36;;;;;;;2.10;2.00;;;19.70;64.20;;;;;;4958588;28;91016;-63
2021/10/17 05:20:04;;;;;;;2.13;1.95;;;19.70;64.30;;;;;;4958604;28;88053;-62
2021/10/17 05:22:32;;;;;;;2.10;2.00;;;19.70;64.30;;;;;;4942695;28;90123;-63
2021/10/17 05:24:59;;;;;;;2.10;1.90;;;19.70;64.40;;;;;;4958502;28;91183;-62
2021/10/17 05:27:26;;;;;;;2.42;2.10;;;19.70;64.30;;;;;;4959012;28;91007;-62
2021/10/17 05:29:53;;;;;;;2.50;1.90;;;19.70;64.30;;;;;;4962050;28;88108;-62
2021/10/17 05:32:23;;;;;;;2.22;1.98;;;19.60;64.30;;;;;;4971502;28;89914;-62
2021/10/17 05:34:50;;;;;;;2.17;2.00;;;19.70;64.30;;;;;;4974317;28;91665;-62
2021/10/17 05:37:17;;;;;;;2.40;2.05;;;19.70;64.40;;;;;;4961749;28;91891;-62
2021/10/17 05:39:44;;;;;;;1.95;1.85;;;19.70;64.40;;;;;;4961808;28;89196;-62
2021/10/17 05:42:11;;;;;;;2.85;2.13;;;19.70;64.40;;;;;;4961341;28;90345;-63
2021/10/17 05:44:39;;;;;;;2.13;2.03;;;19.70;64.40;;;;;;4961657;28;90658;-62
2021/10/17 05:47:08;;;;;;;2.38;2.03;;;19.70;64.40;;;;;;4962998;28;88481;-64
2021/10/17 05:49:35;;;;;;;1.88;1.77;;;19.60;64.40;;;;;;4968524;28;89343;-62
2021/10/17 05:52:02;;;;;;;2.10;1.90;;;19.70;64.40;;;;;;4961833;28;90437;-62
2021/10/17 05:54:29;;;;;;;2.53;2.20;;;19.70;64.50;;;;;;4962079;28;88205;-62
2021/10/17 05:56:56;;;;;;;1.70;1.60;;;19.70;64.50;;;;;;4961470;28;90757;-62
2021/10/17 05:59:26;;;;;;;2.05;1.85;;;19.70;64.50;;;;;;4977390;28;90235;-63
2021/10/17 06:01:54;;;;;;;2.30;1.83;;;19.70;64.50;;;;;;4961375;28;90504;-62
2021/10/17 06:04:29;;;;;;;2.30;2.10;;;19.70;64.50;;;;;;4961343;28;90642;-62
2021/10/17 06:07:05;;;;;;;2.42;2.20;;;19.70;64.50;;;;;;4944266;28;91009;-63
2021/10/17 06:09:34;;;;;;;2.33;2.13;;;19.70;64.50;;;;;;4957440;28;89444;-62
2021/10/17 06:12:03;;;;;;;2.15;2.05;;;19.70;64.60;;;;;;4976558;28;90392;-62
2021/10/17 06:14:30;;;;;;;2.03;1.77;;;19.70;64.60;;;;;;4959244;28;95433;-63
2021/10/17 06:16:58;;;;;;;1.92;1.83;;;19.80;64.50;;;;;;4977268;28;91751;-63
2021/10/17 06:19:26;;;;;;;1.85;1.75;;;19.90;64.30;;;;;;4975472;28;92468;-62
2021/10/17 06:21:55;;;;;;;2.38;2.00;;;20.00;64.10;;;;;;4975885;28;92434;-63
2021/10/17 06:24:23;;;;;;;2.58;2.03;;;20.00;64.00;;;;;;4941596;28;97788;-63
2021/10/17 06:26:51;;;;;;;2.00;1.90;;;20.00;64.00;;;;;;4958517;28;97817;-62
2021/10/17 06:29:19;;;;;;;2.08;1.90;;;20.00;64.00;;;;;;4975052;28;92426;-63
2021/10/17 06:31:46;;;;;;;2.17;2.08;;;20.10;64.00;;;;;;4944579;28;92527;-62
2021/10/17 06:34:14;;;;;;;2.00;1.88;;;20.10;64.00;;;;;;4938961;28;95567;-62
2021/10/17 06:36:41;;;;;;;2.00;1.90;;;20.10;64.00;;;;;;4939251;28;95388;-62
2021/10/17 06:39:08;;;;;;;2.17;2.08;;;20.10;63.90;;;;;;4922712;28;92795;-62
2021/10/17 06:41:35;;;;;;;2.05;1.95;;;20.10;63.90;;;;;;4939605;28;91813;-64
2021/10/17 06:44:13;;;;;;;2.20;2.00;;;20.10;63.90;;;;;;4938652;28;95159;-63
2021/10/17 06:46:41;;;;;;;2.50;2.30;;;20.20;63.90;;;;;;4955617;28;95230;-63
2021/10/17 06:49:08;;;;;;;2.33;2.13;;;20.20;63.90;;;;;;4947161;28;95147;-63
2021/10/17 06:51:35;;;;;;;2.00;1.83;;;20.20;64.50;;;;;;4958032;28;92590;-62
2021/10/17 06:54:02;;;;;;;2.10;1.90;;;20.30;63.90;;;;;;4976086;28;92924;-63
2021/10/17 06:56:30;;;;;;;2.30;2.10;;;20.20;63.80;;;;;;4958059;28;95207;-63
2021/10/17 06:58:57;;;;;;;2.17;2.00;;;20.20;63.80;;;;;;4969377;28;93503;-63
2021/10/17 07:01:24;;;;;;;2.22;1.95;;;20.30;63.80;;;;;;4974067;28;92344;-62
2021/10/17 07:03:55;;;;;;;2.22;2.03;;;20.30;63.80;;;;;;4958071;28;95559;-62
2021/10/17 07:06:28;;;;;;;2.53;2.33;;;20.30;63.80;;;;;;4958650;28;95626;-63
2021/10/17 07:09:06;;;;;;;2.00;1.90;;;20.30;63.70;;;;;;4958057;28;92453;-64
2021/10/17 07:11:53;;;;;;;2.47;2.10;;;20.30;63.80;;;;;;4974055;28;92353;-62
2021/10/17 07:14:25;;;;;;;2.70;2.45;;;20.30;63.80;;;;;;4956545;28;98373;-63
2021/10/17 07:17:11;;;;;;;2.45;2.13;;;20.30;63.70;;;;;;4957849;28;97470;-63
2021/10/17 07:19:38;;;;;;;2.17;1.98;;;20.30;63.70;;;;;;4963293;28;93489;-63
2021/10/17 07:22:05;;;;;;;2.40;2.20;;;20.30;63.70;;;;;;4939024;28;92371;-63
2021/10/17 07:24:36;;;;;;;2.50;2.30;;;20.30;63.70;;;;;;4944243;28;94228;-63
2021/10/17 07:27:04;;;;;;;2.25;2.00;;;20.40;63.80;;;;;;4956759;28;95544;-63
2021/10/17 07:29:31;;;;;;;2.40;2.00;;;20.40;63.70;;;;;;4957056;28;92314;-62
2021/10/17 07:31:58;;;;;;;2.25;2.05;;;20.40;63.70;;;;;;4957777;28;91789;-63
2021/10/17 07:34:26;;;;;;;2.60;2.40;;;20.40;63.70;;;;;;4956944;28;95757;-62
2021/10/17 07:36:53;;;;;;;2.75;2.55;;;20.40;63.70;;;;;;4974476;28;92726;-63
2021/10/17 07:39:25;;;;;;;2.83;2.10;;;20.40;63.70;;;;;;4955945;28;94730;-62
2021/10/17 07:41:53;;;;;;;1.98;1.88;;;20.40;63.70;;;;;;4957043;28;92380;-62
2021/10/17 07:44:21;;;;;;;2.00;1.90;;;20.40;63.70;;;;;;4973387;28;93199;-62
2021/10/17 07:47:01;;;;;;;2.10;1.90;;;20.40;63.70;;;;;;4955923;28;95670;-62
2021/10/17 07:49:32;;;;;;;2.72;2.00;;;20.40;63.70;;;;;;4955304;28;92415;-62
2021/10/17 07:52:00;;;;;;;1.88;1.77;;;20.40;63.70;;;;;;4956963;28;92840;-62
2021/10/17 07:54:28;;;;;;;2.10;1.77;;;20.40;63.70;;;;;;4956912;28;96266;-61
2021/10/17 07:56:57;;;;;;;2.03;1.83;;;20.40;63.60;;;;;;4957031;28;95794;-62
2021/10/17 07:59:30;;;;;;;2.65;2.45;;;20.40;63.60;;;;;;4956733;28;92763;-62
2021/10/17 08:01:57;;;;;;;2.03;1.88;;;20.40;63.60;;;;;;4940876;28;93363;-62
2021/10/17 08:04:32;;;;;;;2.33;2.22;;;20.40;63.60;;;;;;4970569;28;97872;-62
2021/10/17 08:07:10;;;;;;;1.92;1.80;;;20.40;63.50;;;;;;4952712;28;97402;-62
2021/10/17 08:09:37;;;;;;;2.00;1.90;;;20.50;63.60;;;;;;4949913;28;92349;-62
2021/10/17 08:12:06;;;;;;;2.42;2.22;;;20.50;63.50;;;;;;4937338;28;92373;-62
2021/10/17 08:14:33;;;;;;;2.67;2.22;;;20.50;63.50;;;;;;4947563;28;95738;-62
2021/10/17 08:17:01;;;;;;;2.20;2.00;;;20.40;63.40;;;;;;4956924;28;95289;-63
2021/10/17 08:19:46;;;;;;;2.00;1.90;;;20.40;63.30;;;;;;4975649;28;92637;-62
2021/10/17 08:22:14;;;;;;;3.63;1.98;;;20.50;63.30;;;;;;4957857;28;91668;-63
2021/10/17 08:24:41;;;;;;;3.75;2.75;;;20.50;63.20;;;;;;4956579;28;95375;-62
2021/10/17 08:27:08;;;;;;;3.35;2.40;;;20.50;63.10;;;;;;4940888;28;95032;-63
2021/10/17 08:29:36;;;;;;;2.40;2.20;;;20.40;63.00;;;;;;4956148;28;95164;-62
2021/10/17 08:32:03;;;;;;;2.83;2.20;;;20.40;62.90;;;;;;4975186;28;92665;-63
2021/10/17 08:34:36;;;;;;;3.85;2.00;;;20.40;62.90;;;;;;4956989;28;95426;-62
2021/10/17 08:37:03;;;;;;;2.70;2.30;;;20.50;62.90;;;;;;4956959;28;95263;-62
2021/10/17 08:39:49;;;;;;;2.35;2.15;;;20.40;62.70;;;;;;4975804;28;92502;-62
2021/10/17 08:42:20;;;;;;;2.85;2.60;;;20.50;62.60;;;;;;4957342;28;92313;-62
2021/10/17 08:45:08;;;;;;;3.92;2.45;;;20.40;62.50;;;;;;4943126;28;95529;-63
2021/10/17 08:47:36;;;;;;;2.50;2.30;;;20.50;62.50;;;;;;4956907;28;95478;-70
2021/10/17 08:50:07;;;;;;;2.95;2.33;;;20.40;62.50;;;;;;4947215;28;92382;-70
2021/10/17 08:52:34;;;;;;;3.05;2.70;;;20.40;62.40;;;;;;4956945;28;93227;-70
2021/10/17 08:55:02;;;;;;;3.33;2.50;;;20.50;62.70;;;;;;4973310;28;95324;-70
2021/10/17 08:57:30;;;;;;;3.80;2.40;;;20.50;62.20;;;;;;4973148;28;98185;-71
2021/10/17 08:59:57;;;;;;;2.92;2.72;;;20.40;62.10;;;;;;4940461;28;92394;-71
2021/10/17 09:02:25;;;;;;;2.83;2.28;;;20.40;62.10;;;;;;4956264;28;92270;-71
2021/10/17 09:05:01;;;;;;;4.20;2.80;;;20.40;62.10;;;;;;4956208;28;94994;-71
2021/10/17 09:07:53;;;;;;;2.85;2.65;;;20.40;62.10;;;;;;4973013;28;94803;-71
2021/10/17 09:10:50;;;;;;;4.93;2.60;;;20.50;62.10;;;;;;4967902;28;92336;-70
2021/10/17 09:13:17;;;;;;;3.13;2.45;;;20.40;61.90;;;;;;4970283;28;91635;-62
2021/10/17 09:15:45;;;;;;;4.03;2.40;;;20.40;61.80;;;;;;4956693;28;95541;-63
2021/10/17 09:18:22;;;;;;;2.50;2.30;;;20.40;61.80;;;;;;4974089;28;92622;-63
2021/10/17 09:21:03;;;;;;;4.18;2.70;;;20.40;61.80;;;;;;4954543;28;94720;-62
2021/10/17 09:23:33;;;;;;;3.58;2.78;;;20.40;61.70;;;;;;4956712;28;92238;-63
2021/10/17 09:26:07;;;;;;;3.53;2.70;;;20.40;61.70;;;;;;4973758;28;93218;-63
2021/10/17 09:28:34;;;;;;;3.47;2.50;;;20.40;61.70;;;;;;4973616;28;92232;-63
2021/10/17 09:31:12;;;;;;;3.47;2.47;;;20.40;61.70;;;;;;4972435;28;92653;-62
2021/10/17 09:33:44;;;;;;;3.13;2.80;;;20.40;61.60;;;;;;4973971;28;92253;-62
2021/10/17 09:36:22;;;;;;;3.47;2.67;;;20.40;61.60;;;;;;4955627;28;95724;-62
2021/10/17 09:39:13;;;;;;;3.13;2.15;;;20.40;61.60;;;;;;4973192;28;93537;-63
2021/10/17 09:42:21;;;;;;;3.35;2.65;;;20.40;61.60;;;;;;4873809;28;92994;-63
2021/10/17 09:45:00;;;;;;;4.72;2.80;;;20.40;61.40;;;;;;4948728;28;92849;-64
2021/10/17 09:47:40;;;;;;;6.82;2.80;;;20.40;61.40;;;;;;4970884;28;95289;-63
2021/10/17 09:50:18;;;;;;;3.50;2.75;;;20.40;61.40;;;;;;4971454;28;95142;-63
2021/10/17 09:52:57;;;;;;;4.32;2.60;;;20.40;61.40;;;;;;4973261;28;92244;-63
2021/10/17 09:55:25;;;;;;;3.70;3.00;;;20.40;61.40;;;;;;4954502;28;92468;-63
2021/10/17 09:57:52;;;;;;;4.60;2.78;;;20.40;61.30;;;;;;4955394;28;92974;-62
2021/10/17 10:00:20;;;;;;;4.78;2.63;;;20.40;61.30;;;;;;4955561;28;94008;-63
2021/10/17 10:02:49;;;;;;;3.20;2.28;;;20.40;61.30;;;;;;4973553;28;92555;-63
2021/10/17 10:05:21;;;;;;;3.08;2.75;;;20.40;61.30;;;;;;4973491;28;91922;-63
2021/10/17 10:07:51;;;;;;;7.57;3.72;;;20.40;61.20;;;;;;4971579;28;95726;-62
2021/10/17 10:10:19;;;;;;;3.75;3.33;;;20.40;61.10;;;;;;4954786;28;92723;-63
2021/10/17 10:12:47;;;;;;;8.85;3.40;;;20.50;61.10;;;;;;4971643;28;95180;-63
2021/10/17 10:15:15;;;;;;;5.45;3.50;;;20.40;61.10;;;;;;4969961;28;92574;-62
2021/10/17 10:17:43;;;;;;;5.90;3.78;;;20.40;61.10;;;;;;4975434;28;93023;-62
2021/10/17 10:20:11;;;;;;;5.35;3.72;;;20.40;61.10;;;;;;4957929;28;93047;-63
2021/10/17 10:22:43;;;;;;;5.43;3.22;;;20.40;61.00;;;;;;4942867;28;92296;-62
2021/10/17 10:25:14;;;;;;;6.30;3.90;;;20.40;61.00;;;;;;4975269;28;92346;-63
2021/10/17 10:27:41;;;;;;;7.20;4.00;;;20.50;61.00;;;;;;4974006;28;92820;-62
2021/10/17 10:30:38;;;;;;;6.97;4.47;;;20.40;60.90;;;;;;4942034;28;92612;-63
2021/10/17 10:33:13;;;;;;;5.35;3.40;;;20.40;61.00;;;;;;4936803;28;93106;-62
2021/10/17 10:36:17;;;;;;;9.02;4.03;;;20.40;61.00;;;;;;4974407;28;94132;-63
2021/10/17 10:38:53;;;;;;;7.40;4.10;;;20.40;60.90;;;;;;4973473;28;95351;-62
2021/10/17 10:41:31;;;;;;;9.32;4.95;;;20.40;60.80;;;;;;4974182;28;94973;-62
2021/10/17 10:44:14;;;;;;;7.50;4.43;;;20.50;60.90;;;;;;4975042;28;92423;-62
2021/10/17 10:46:45;;;;;;;10.27;4.25;;;20.40;60.80;;;;;;4973922;28;93042;-62
2021/10/17 10:49:48;;;;;;;7.80;4.32;;;20.40;60.80;;;;;;4954189;28;93850;-62
2021/10/17 10:52:21;;;;;;;9.68;4.35;;;20.40;60.70;;;;;;4972808;28;93208;-63
2021/10/17 10:54:48;;;;;;;7.63;4.80;;;20.40;60.80;;;;;;4973272;28;92529;-63
2021/10/17 10:57:20;;;;;;;10.73;5.30;;;20.50;60.80;;;;;;4975046;28;92325;-62
2021/10/17 11:00:11;;;;;;;6.57;4.35;;;20.40;60.70;;;;;;4956322;28;95562;-62
2021/10/17 11:02:40;;;;;;;7.68;4.97;;;20.40;60.60;;;;;;4975875;28;92763;-62
2021/10/17 11:05:14;;;;;;;7.93;3.47;;;20.40;60.70;;;;;;4941316;28;95070;-62
2021/10/17 11:07:47;;;;;;;8.85;4.25;;;20.40;60.70;;;;;;4973483;28;92364;-61
2021/10/17 11:10:23;;;;;;;8.27;4.43;;;20.50;60.70;;;;;;4971359;28;92367;-61
2021/10/17 11:12:55;;;;;;;7.45;4.60;;;20.50;60.60;;;;;;4971877;28;92821;-61
2021/10/17 11:15:27;;;;;;;7.83;4.33;;;20.40;60.60;;;;;;4956639;28;92835;-61
2021/10/17 11:18:03;;;;;;;8.80;4.20;;;20.40;60.50;;;;;;4975642;28;92573;-61
2021/10/17 11:20:39;;;;;;;10.32;4.20;;;20.40;60.40;;;;;;4973730;28;92980;-61
2021/10/17 11:23:15;;;;;;;11.55;4.10;;;20.40;60.50;;;;;;4957956;28;92847;-62
2021/10/17 11:25:53;;;;;;;5.97;3.95;;;20.40;60.60;;;;;;4955953;28;93429;-62
2021/10/17 11:28:25;;;;;;;8.60;4.43;;;20.40;60.60;;;;;;4975035;28;92879;-62
2021/10/17 11:31:04;;;;;;;10.27;4.68;;;20.40;60.50;;;;;;4954749;28;98004;-61
2021/10/17 11:33:31;;;;;;;8.18;4.22;;;20.40;60.50;;;;;;4956503;28;94961;-62
2021/10/17 11:35:59;;;;;;;8.43;4.68;;;20.40;60.40;;;;;;4973883;28;92739;-62
2021/10/17 11:38:27;;;;;;;11.57;4.65;;;20.40;60.30;;;;;;4974212;28;92976;-62
2021/10/17 11:41:01;;;;;;;8.13;4.30;;;20.40;60.30;;;;;;4973583;28;93156;-61
2021/10/17 11:43:36;;;;;;;10.60;3.90;;;20.40;60.20;;;;;;4974869;28;92764;-62
2021/10/17 11:46:08;;;;;;;11.38;4.35;;;20.40;60.20;;;;;;4953175;28;92524;-61
2021/10/17 11:48:37;;;;;;;7.78;4.03;;;20.40;60.80;;;;;;4971403;28;91771;-62
2021/10/17 11:51:07;;;;;;;7.15;4.18;;;20.40;60.00;;;;;;4972814;28;93030;-63
2021/10/17 11:53:36;;;;;;;9.63;4.10;;;20.40;59.70;;;;;;4957388;28;95396;-62
2021/10/17 11:56:09;;;;;;;11.75;5.18;;;20.40;59.70;;;;;;4958292;28;94780;-63
2021/10/17 11:58:41;;;;;;;7.22;4.22;;;20.40;59.70;;;;;;4975267;28;92291;-62
2021/10/17 12:01:16;;;;;;;10.75;4.78;;;20.40;59.50;;;;;;4970341;28;93049;-62
2021/10/17 12:03:53;;;;;;;10.48;4.30;;;20.40;59.20;;;;;;4964969;28;93025;-62
2021/10/17 12:06:21;;;;;;;9.82;4.60;;;20.40;59.00;;;;;;4954931;28;92422;-62
2021/10/17 12:08:55;;;;;;;8.82;4.38;;;20.40;59.00;;;;;;4953323;28;92711;-61
2021/10/17 12:11:22;;;;;;;10.70;4.00;;;20.40;58.90;;;;;;4957607;28;93187;-63
2021/10/17 12:14:01;;;;;;;9.77;4.07;;;20.40;58.60;;;;;;4938819;28;94263;-62
2021/10/17 12:16:31;;;;;;;10.43;3.80;;;20.40;59.00;;;;;;4946237;28;92472;-62
2021/10/17 12:19:03;;;;;;;8.35;4.00;;;20.40;58.50;;;;;;4937667;28;92242;-62
2021/10/17 12:21:33;;;;;;;8.90;3.95;;;20.40;58.30;;;;;;4969438;28;95396;-62
2021/10/17 12:24:01;;;;;;;10.13;4.28;;;20.40;58.40;;;;;;4973664;28;95135;-62
2021/10/17 12:26:34;;;;;;;7.78;3.30;;;20.40;58.20;;;;;;4940217;28;92315;-63
2021/10/17 12:29:05;;;;;;;7.78;4.05;;;20.40;58.10;;;;;;4973490;28;92515;-62
2021/10/17 12:31:35;;;;;;;8.02;3.47;;;20.40;58.20;;;;;;4973090;28;92827;-63
2021/10/17 12:34:05;;;;;;;6.68;3.78;;;20.40;58.00;;;;;;4972282;28;92944;-62
2021/10/17 12:36:33;;;;;;;6.90;3.15;;;20.50;57.80;;;;;;4972361;28;93336;-61
2021/10/17 12:39:07;;;;;;;8.25;3.20;;;20.40;57.80;;;;;;4972930;28;92525;-62
2021/10/17 12:41:34;;;;;;;7.50;3.83;;;20.40;57.90;;;;;;4972012;28;93030;-63
2021/10/17 12:44:04;;;;;;;8.80;3.60;;;20.40;57.60;;;;;;4973264;28;92511;-62
2021/10/17 12:46:31;;;;;;;9.23;3.40;;;20.40;57.50;;;;;;4970892;28;94942;-62
2021/10/17 12:49:11;;;;;;;9.75;3.60;;;20.40;57.40;;;;;;4972417;28;93284;-63
2021/10/17 12:51:48;;;;;;;6.05;3.65;;;20.40;57.40;;;;;;4972948;28;92898;-61
2021/10/17 12:54:26;;;;;;;7.20;3.33;;;20.40;57.10;;;;;;4966391;28;92758;-63
2021/10/17 12:56:57;;;;;;;6.40;3.35;;;20.40;57.10;;;;;;4973343;28;92638;-62
2021/10/17 12:59:32;;;;;;;5.20;3.13;;;20.40;57.10;;;;;;4970053;28;92688;-62
2021/10/17 13:02:10;;;;;;;7.50;2.90;;;20.40;57.00;;;;;;4971805;28;92927;-62
2021/10/17 13:04:42;;;;;;;8.60;3.03;;;20.40;56.80;;;;;;4973712;28;92789;-62